createdAt,value
2019-01-18T00:00:19.484Z,8.00
2019-01-18T00:01:19.755Z,8.00
2019-01-18T00:02:19.446Z,8.00
2019-01-18T00:03:19.436Z,8.00
2019-01-18T00:04:19.871Z,8.00
2019-01-18T00:05:19.416Z,8.00
2019-01-18T00:06:19.408Z,8.00
2019-01-18T00:07:19.432Z,8.00
2019-01-18T00:08:19.390Z,8.00
2019-01-18T00:09:19.386Z,8.00
2019-01-18T00:10:19.371Z,8.00
2019-01-18T00:11:19.680Z,8.00
2019-01-18T00:12:19.366Z,8.00
2019-01-18T00:13:19.376Z,8.00
2019-01-18T00:14:19.324Z,8.00
2019-01-18T00:15:19.313Z,8.00
2019-01-18T00:16:19.306Z,8.00
2019-01-18T00:17:19.292Z,8.00
2019-01-18T00:18:19.561Z,8.00
2019-01-18T00:19:19.337Z,8.00
2019-01-18T00:20:19.262Z,8.00
2019-01-18T00:21:19.254Z,8.00
2019-01-18T00:22:19.244Z,8.00
2019-01-18T00:23:19.235Z,8.00
2019-01-18T00:24:19.221Z,8.00
2019-01-18T00:25:19.534Z,8.00
2019-01-18T00:26:19.205Z,8.00
2019-01-18T00:27:19.191Z,8.00
2019-01-18T00:28:19.189Z,8.00
2019-01-18T00:29:19.177Z,8.00
2019-01-18T00:30:19.161Z,8.00
2019-01-18T00:31:19.641Z,12.00
2019-01-18T00:32:19.141Z,8.00
2019-01-18T00:33:19.131Z,8.00
2019-01-18T00:34:19.120Z,8.00
2019-01-18T00:35:19.108Z,8.00
2019-01-18T00:36:19.100Z,8.00
2019-01-18T00:37:19.159Z,8.00
2019-01-18T00:38:19.078Z,8.00
2019-01-18T00:39:19.068Z,8.00
2019-01-18T00:40:19.058Z,8.00
2019-01-18T00:41:19.052Z,8.00
2019-01-18T00:42:19.036Z,8.00
2019-01-18T00:43:19.412Z,8.00
2019-01-18T00:44:19.016Z,8.00
2019-01-18T00:45:19.005Z,8.00
2019-01-18T00:46:19.001Z,8.00
2019-01-18T00:47:18.984Z,8.00
2019-01-18T00:48:18.975Z,8.00
2019-01-18T00:49:19.010Z,8.00
2019-01-18T00:50:18.955Z,8.00
2019-01-18T00:51:18.945Z,8.00
2019-01-18T00:52:18.933Z,8.00
2019-01-18T00:53:18.924Z,8.00
2019-01-18T00:54:18.916Z,8.00
2019-01-18T00:55:19.252Z,8.00
2019-01-18T00:56:18.894Z,8.00
2019-01-18T00:57:18.887Z,8.00
2019-01-18T00:58:18.872Z,8.00
2019-01-18T00:59:18.866Z,8.00
2019-01-18T01:00:18.851Z,8.00
2019-01-18T01:01:18.883Z,8.00
2019-01-18T01:02:19.143Z,8.00
2019-01-18T01:03:18.822Z,8.00
2019-01-18T01:04:18.812Z,8.00
2019-01-18T01:05:18.800Z,8.00
2019-01-18T01:06:18.798Z,8.00
2019-01-18T01:07:18.828Z,8.00
2019-01-18T01:08:18.780Z,12.00
2019-01-18T01:09:19.177Z,8.00
2019-01-18T01:10:18.751Z,12.00
2019-01-18T01:11:18.741Z,8.00
2019-01-18T01:12:18.731Z,8.00
2019-01-18T01:13:18.774Z,8.00
2019-01-18T01:14:18.709Z,8.00
2019-01-18T01:15:18.702Z,8.00
2019-01-18T01:16:20.014Z,8.00
2019-01-18T01:17:18.680Z,8.00
2019-01-18T01:18:18.671Z,8.00
2019-01-18T01:19:18.703Z,8.00
2019-01-18T01:20:18.651Z,8.00
2019-01-18T01:21:18.638Z,8.00
2019-01-18T01:22:18.630Z,8.00
2019-01-18T01:23:19.004Z,8.00
2019-01-18T01:24:18.608Z,8.00
2019-01-18T01:25:18.644Z,8.00
2019-01-18T01:26:18.587Z,8.00
2019-01-18T01:27:18.582Z,8.00
2019-01-18T01:28:18.568Z,8.00
2019-01-18T01:29:18.570Z,8.00
2019-01-18T01:30:18.852Z,8.00
2019-01-18T01:31:18.750Z,8.00
2019-01-18T01:32:18.540Z,8.00
2019-01-18T01:33:18.523Z,8.00
2019-01-18T01:34:18.508Z,8.00
2019-01-18T01:35:18.498Z,8.00
2019-01-18T01:36:18.488Z,8.00
2019-01-18T01:37:18.870Z,8.00
2019-01-18T01:38:18.467Z,8.00
2019-01-18T01:39:18.466Z,8.00
2019-01-18T01:40:18.450Z,8.00
2019-01-18T01:41:18.440Z,8.00
2019-01-18T01:42:18.433Z,8.00
2019-01-18T01:43:18.458Z,8.00
2019-01-18T01:44:18.692Z,8.00
2019-01-18T01:45:18.400Z,8.00
2019-01-18T01:46:18.389Z,8.00
2019-01-18T01:47:18.377Z,8.00
2019-01-18T01:48:18.367Z,8.00
2019-01-18T01:49:18.410Z,8.00
2019-01-18T01:50:18.347Z,8.00
2019-01-18T01:51:18.641Z,8.00
2019-01-18T01:52:18.326Z,8.00
2019-01-18T01:53:18.316Z,8.00
2019-01-18T01:54:18.309Z,8.00
2019-01-18T01:55:18.343Z,8.00
2019-01-18T01:56:18.286Z,8.00
2019-01-18T01:57:18.278Z,8.00
2019-01-18T01:58:18.675Z,8.00
2019-01-18T01:59:18.259Z,8.00
2019-01-18T02:00:18.246Z,8.00
2019-01-18T02:01:18.279Z,8.00
2019-01-18T02:02:18.226Z,8.00
2019-01-18T02:03:18.217Z,8.00
2019-01-18T02:04:18.206Z,8.00
2019-01-18T02:05:18.503Z,12.00
2019-01-18T02:06:18.184Z,8.00
2019-01-18T02:07:18.240Z,8.00
2019-01-18T02:08:18.164Z,8.00
2019-01-18T02:09:18.156Z,8.00
2019-01-18T02:10:18.144Z,12.00
2019-01-18T02:11:18.143Z,8.00
2019-01-18T02:12:18.488Z,8.00
2019-01-18T02:13:18.161Z,8.00
2019-01-18T02:14:18.105Z,8.00
2019-01-18T02:15:18.095Z,8.00
2019-01-18T02:16:18.085Z,8.00
2019-01-18T02:17:18.081Z,8.00
2019-01-18T02:18:18.063Z,8.00
2019-01-18T02:19:18.541Z,8.00
2019-01-18T02:20:18.043Z,8.00
2019-01-18T02:21:18.034Z,8.00
2019-01-18T02:22:18.022Z,8.00
2019-01-18T02:23:18.010Z,8.00
2019-01-18T02:24:18.000Z,8.00
2019-01-18T02:25:18.056Z,8.00
2019-01-18T02:26:18.320Z,8.00
2019-01-18T02:27:17.969Z,8.00
2019-01-18T02:28:17.968Z,8.00
2019-01-18T02:29:17.949Z,8.00
2019-01-18T02:30:17.942Z,8.00
2019-01-18T02:31:17.971Z,8.00
2019-01-18T02:32:17.919Z,8.00
2019-01-18T02:33:18.343Z,8.00
2019-01-18T02:34:17.899Z,8.00
2019-01-18T02:35:17.932Z,8.00
2019-01-18T02:36:17.877Z,8.00
2019-01-18T02:37:17.907Z,8.00
2019-01-18T02:38:17.859Z,8.00
2019-01-18T02:39:17.845Z,8.00
2019-01-18T02:40:18.148Z,8.00
2019-01-18T02:41:17.842Z,8.00
2019-01-18T02:42:17.816Z,8.00
2019-01-18T02:43:17.868Z,8.00
2019-01-18T02:44:17.795Z,8.00
2019-01-18T02:45:17.856Z,8.00
2019-01-18T02:46:17.774Z,8.00
2019-01-18T02:47:18.166Z,8.00
2019-01-18T02:48:17.757Z,8.00
2019-01-18T02:49:17.787Z,8.00
2019-01-18T02:50:17.731Z,8.00
2019-01-18T02:51:17.728Z,8.00
2019-01-18T02:52:17.710Z,8.00
2019-01-18T02:53:17.708Z,8.00
2019-01-18T02:54:17.973Z,12.00
2019-01-18T02:55:17.725Z,8.00
2019-01-18T02:56:17.671Z,8.00
2019-01-18T02:57:17.660Z,12.00
2019-01-18T02:58:17.649Z,8.00
2019-01-18T02:59:17.643Z,8.00
2019-01-18T03:01:34.137Z,12.00
2019-01-18T03:02:33.777Z,8.00
2019-01-18T03:03:33.766Z,12.00
2019-01-18T03:04:33.755Z,12.00
2019-01-18T03:05:33.750Z,8.00
2019-01-18T03:06:33.735Z,8.00
2019-01-18T03:07:34.231Z,8.00
2019-01-18T03:08:33.713Z,12.00
2019-01-18T03:09:33.704Z,12.00
2019-01-18T03:10:33.693Z,12.00
2019-01-18T03:11:33.682Z,12.00
2019-01-18T03:12:33.671Z,8.00
2019-01-18T03:13:33.709Z,8.00
2019-01-18T03:14:34.046Z,12.00
2019-01-18T03:15:33.639Z,12.00
2019-01-18T03:16:33.663Z,12.00
2019-01-18T03:17:33.632Z,8.00
2019-01-18T03:18:33.632Z,12.00
2019-01-18T03:19:33.673Z,12.00
2019-01-18T03:20:33.588Z,8.00
2019-01-18T03:21:33.890Z,12.00
2019-01-18T03:22:33.570Z,12.00
2019-01-18T03:23:33.556Z,8.00
2019-01-18T03:24:33.551Z,8.00
2019-01-18T03:25:33.583Z,12.00
2019-01-18T03:26:33.527Z,8.00
2019-01-18T03:27:33.537Z,8.00
2019-01-18T03:28:33.954Z,12.00
2019-01-18T03:29:33.496Z,12.00
2019-01-18T03:30:33.486Z,12.00
2019-01-18T03:31:33.512Z,8.00
2019-01-18T03:32:33.502Z,8.00
2019-01-18T03:33:33.468Z,8.00
2019-01-18T03:34:33.454Z,12.00
2019-01-18T03:35:33.811Z,12.00
2019-01-18T03:36:33.421Z,12.00
2019-01-18T03:37:33.487Z,12.00
2019-01-18T03:38:33.399Z,8.00
2019-01-18T03:39:33.404Z,8.00
2019-01-18T03:40:33.386Z,12.00
2019-01-18T03:41:33.374Z,8.00
2019-01-18T03:42:33.850Z,12.00
2019-01-18T03:43:33.417Z,12.00
2019-01-18T03:44:33.338Z,12.00
2019-01-18T03:45:33.328Z,12.00
2019-01-18T03:46:33.337Z,12.00
2019-01-18T03:47:33.325Z,8.00
2019-01-18T03:48:33.296Z,8.00
2019-01-18T03:49:33.731Z,12.00
2019-01-18T03:50:33.294Z,12.00
2019-01-18T03:51:33.271Z,12.00
2019-01-18T03:52:33.254Z,12.00
2019-01-18T03:53:33.265Z,8.00
2019-01-18T03:54:33.232Z,12.00
2019-01-18T03:55:33.287Z,8.00
2019-01-18T03:56:33.545Z,12.00
2019-01-18T03:57:33.204Z,12.00
2019-01-18T03:58:33.192Z,8.00
2019-01-18T03:59:33.193Z,12.00
2019-01-18T04:00:33.202Z,12.00
2019-01-18T04:01:33.197Z,12.00
2019-01-18T04:02:33.165Z,12.00
2019-01-18T04:03:33.445Z,12.00
2019-01-18T04:04:33.136Z,12.00
2019-01-18T04:05:33.117Z,12.00
2019-01-18T04:06:33.112Z,12.00
2019-01-18T04:07:33.179Z,12.00
2019-01-18T04:08:33.096Z,12.00
2019-01-18T04:09:33.079Z,12.00
2019-01-18T04:10:33.552Z,12.00
2019-01-18T04:11:33.058Z,12.00
2019-01-18T04:12:33.057Z,12.00
2019-01-18T04:13:33.132Z,12.00
2019-01-18T04:14:33.026Z,12.00
2019-01-18T04:15:33.015Z,12.00
2019-01-18T04:16:33.016Z,12.00
2019-01-18T04:17:33.396Z,12.00
2019-01-18T04:18:32.980Z,12.00
2019-01-18T04:19:33.818Z,12.00
2019-01-18T04:20:32.976Z,12.00
2019-01-18T04:21:32.961Z,12.00
2019-01-18T04:22:32.938Z,12.00
2019-01-18T04:23:32.929Z,12.00
2019-01-18T04:24:33.213Z,12.00
2019-01-18T04:25:32.950Z,12.00
2019-01-18T04:26:32.907Z,12.00
2019-01-18T04:27:32.887Z,12.00
2019-01-18T04:28:32.896Z,12.00
2019-01-18T04:29:32.873Z,12.00
2019-01-18T04:30:33.783Z,12.00
2019-01-18T04:31:32.923Z,12.00
2019-01-18T04:32:32.834Z,12.00
2019-01-18T04:33:32.825Z,12.00
2019-01-18T04:34:32.813Z,12.00
2019-01-18T04:35:32.801Z,12.00
2019-01-18T04:36:32.792Z,12.00
2019-01-18T04:37:33.317Z,12.00
2019-01-18T04:38:32.772Z,12.00
2019-01-18T04:39:32.760Z,12.00
2019-01-18T04:40:32.751Z,12.00
2019-01-18T04:41:32.738Z,12.00
2019-01-18T04:42:32.730Z,12.00
2019-01-18T04:43:32.766Z,12.00
2019-01-18T04:44:33.100Z,12.00
2019-01-18T04:45:32.701Z,12.00
2019-01-18T04:46:32.689Z,12.00
2019-01-18T04:47:32.680Z,12.00
2019-01-18T04:48:32.666Z,12.00
2019-01-18T04:49:32.875Z,12.00
2019-01-18T04:50:32.651Z,12.00
2019-01-18T04:51:33.103Z,12.00
2019-01-18T04:52:32.624Z,12.00
2019-01-18T04:53:32.617Z,12.00
2019-01-18T04:54:32.609Z,12.00
2019-01-18T04:55:32.636Z,12.00
2019-01-18T04:56:32.608Z,20.00
2019-01-18T04:57:32.586Z,12.00
2019-01-18T04:58:32.930Z,12.00
2019-01-18T04:59:32.554Z,12.00
2019-01-18T05:00:32.541Z,12.00
2019-01-18T05:01:32.562Z,12.00
2019-01-18T05:02:32.541Z,12.00
2019-01-18T05:03:32.510Z,12.00
2019-01-18T05:04:32.501Z,12.00
2019-01-18T05:05:32.768Z,12.00
2019-01-18T05:06:32.489Z,12.00
2019-01-18T05:07:32.724Z,12.00
2019-01-18T05:08:32.457Z,12.00
2019-01-18T05:09:32.453Z,12.00
2019-01-18T05:10:32.450Z,12.00
2019-01-18T05:11:32.446Z,12.00
2019-01-18T05:12:32.696Z,12.00
2019-01-18T05:13:32.444Z,12.00
2019-01-18T05:14:32.396Z,12.00
2019-01-18T05:15:32.385Z,16.00
2019-01-18T05:16:32.416Z,12.00
2019-01-18T05:17:32.365Z,12.00
2019-01-18T05:18:32.354Z,12.00
2019-01-18T05:19:32.790Z,16.00
2019-01-18T05:20:32.336Z,12.00
2019-01-18T05:21:32.326Z,12.00
2019-01-18T05:22:32.314Z,12.00
2019-01-18T05:23:32.302Z,12.00
2019-01-18T05:24:32.291Z,12.00
2019-01-18T05:25:32.330Z,12.00
2019-01-18T05:26:33.083Z,12.00
2019-01-18T05:27:32.265Z,12.00
2019-01-18T05:28:32.252Z,12.00
2019-01-18T05:29:32.278Z,12.00
2019-01-18T05:30:32.229Z,12.00
2019-01-18T05:31:32.255Z,12.00
2019-01-18T05:32:32.209Z,12.00
2019-01-18T05:33:33.611Z,12.00
2019-01-18T05:34:32.217Z,12.00
2019-01-18T05:35:32.187Z,12.00
2019-01-18T05:36:32.169Z,12.00
2019-01-18T05:37:32.194Z,12.00
2019-01-18T05:38:32.155Z,12.00
2019-01-18T05:39:32.137Z,12.00
2019-01-18T05:40:32.487Z,12.00
2019-01-18T05:41:32.123Z,12.00
2019-01-18T05:42:32.112Z,12.00
2019-01-18T05:43:32.962Z,12.00
2019-01-18T05:44:32.091Z,12.00
2019-01-18T05:45:32.074Z,12.00
2019-01-18T05:46:32.067Z,12.00
2019-01-18T05:47:32.401Z,12.00
2019-01-18T05:48:32.044Z,12.00
2019-01-18T05:49:32.068Z,12.00
2019-01-18T05:50:32.022Z,12.00
2019-01-18T05:51:32.016Z,12.00
2019-01-18T05:52:32.580Z,12.00
2019-01-18T05:53:32.008Z,12.00
2019-01-18T05:54:31.988Z,12.00
2019-01-18T05:55:32.825Z,12.00
2019-01-18T05:56:31.960Z,12.00
2019-01-18T05:57:31.949Z,12.00
2019-01-18T05:58:31.984Z,12.00
2019-01-18T05:59:31.929Z,12.00
2019-01-18T06:00:32.292Z,12.00
2019-01-18T06:01:31.968Z,12.00
2019-01-18T06:02:32.508Z,12.00
2019-01-18T06:03:31.888Z,12.00
2019-01-18T06:04:31.880Z,12.00
2019-01-18T06:05:31.887Z,12.00
2019-01-18T06:06:31.858Z,12.00
2019-01-18T06:07:32.211Z,8.00
2019-01-18T06:08:31.837Z,12.00
2019-01-18T06:09:31.827Z,12.00
2019-01-18T06:10:31.815Z,12.00
2019-01-18T06:11:31.811Z,12.00
2019-01-18T06:12:31.795Z,12.00
2019-01-18T06:13:31.862Z,12.00
2019-01-18T06:14:32.176Z,8.00
2019-01-18T06:15:31.764Z,12.00
2019-01-18T06:16:31.768Z,12.00
2019-01-18T06:17:31.744Z,12.00
2019-01-18T06:18:31.754Z,12.00
2019-01-18T06:19:31.844Z,12.00
2019-01-18T06:20:31.743Z,12.00
2019-01-18T06:21:31.984Z,12.00
2019-01-18T06:22:31.746Z,8.00
2019-01-18T06:23:31.679Z,12.00
2019-01-18T06:24:31.668Z,12.00
2019-01-18T06:25:31.707Z,12.00
2019-01-18T06:26:31.662Z,12.00
2019-01-18T06:27:31.640Z,12.00
2019-01-18T06:28:31.968Z,12.00
2019-01-18T06:29:31.615Z,12.00
2019-01-18T06:30:31.612Z,12.00
2019-01-18T06:31:31.652Z,12.00
2019-01-18T06:32:31.587Z,12.00
2019-01-18T06:33:31.609Z,8.00
2019-01-18T06:34:31.589Z,12.00
2019-01-18T06:35:31.564Z,12.00
2019-01-18T06:36:31.546Z,12.00
2019-01-18T06:37:31.625Z,12.00
2019-01-18T06:38:31.539Z,12.00
2019-01-18T06:39:31.523Z,8.00
2019-01-18T06:40:31.982Z,12.00
2019-01-18T06:41:31.540Z,8.00
2019-01-18T06:42:31.523Z,8.00
2019-01-18T06:43:31.678Z,12.00
2019-01-18T06:44:31.515Z,4.00
2019-01-18T06:45:31.473Z,12.00
2019-01-18T06:46:31.441Z,12.00
2019-01-18T06:47:31.428Z,12.00
2019-01-18T06:48:31.417Z,12.00
2019-01-18T06:49:31.457Z,16.00
2019-01-18T06:50:31.400Z,12.00
2019-01-18T06:51:31.385Z,12.00
2019-01-18T06:52:31.760Z,16.00
2019-01-18T06:53:31.368Z,12.00
2019-01-18T06:54:31.362Z,16.00
2019-01-18T06:55:31.652Z,16.00
2019-01-18T06:56:32.539Z,16.00
2019-01-18T06:57:31.324Z,20.00
2019-01-18T06:58:31.314Z,20.00
2019-01-18T06:59:31.774Z,20.00
2019-01-18T07:00:31.293Z,24.00
2019-01-18T07:01:31.336Z,24.00
2019-01-18T07:02:31.275Z,24.00
2019-01-18T07:03:31.263Z,28.00
2019-01-18T07:04:31.256Z,28.00
2019-01-18T07:05:31.241Z,32.00
2019-01-18T07:06:31.693Z,36.00
2019-01-18T07:07:31.254Z,40.00
2019-01-18T07:08:31.209Z,44.00
2019-01-18T07:09:31.209Z,48.00
2019-01-18T07:10:31.189Z,52.00
2019-01-18T07:11:31.180Z,60.00
2019-01-18T07:12:31.176Z,64.00
2019-01-18T07:13:31.845Z,72.00
2019-01-18T07:14:31.149Z,76.00
2019-01-18T07:15:31.139Z,88.00
2019-01-18T07:16:31.987Z,92.00
2019-01-18T07:17:31.125Z,108.00
2019-01-18T07:18:31.105Z,120.00
2019-01-18T07:19:31.137Z,132.00
2019-01-18T07:20:31.417Z,140.00
2019-01-18T07:21:31.083Z,148.00
2019-01-18T07:22:31.068Z,152.00
2019-01-18T07:23:31.060Z,164.00
2019-01-18T07:24:31.069Z,176.00
2019-01-18T07:25:31.076Z,192.00
2019-01-18T07:26:31.030Z,208.00
2019-01-18T07:27:31.431Z,224.00
2019-01-18T07:28:33.988Z,244.00
2019-01-18T07:29:31.996Z,264.00
2019-01-18T07:30:30.991Z,280.00
2019-01-18T07:31:31.041Z,296.00
2019-01-18T07:32:30.960Z,316.00
2019-01-18T07:33:30.950Z,336.00
2019-01-18T07:34:31.871Z,352.00
2019-01-18T07:35:30.933Z,380.00
2019-01-18T07:36:30.921Z,404.00
2019-01-18T07:37:31.742Z,428.00
2019-01-18T07:38:30.898Z,448.00
2019-01-18T07:39:30.889Z,472.00
2019-01-18T07:40:30.877Z,500.00
2019-01-18T07:41:31.261Z,528.00
2019-01-18T07:42:30.857Z,544.00
2019-01-18T07:43:30.881Z,564.00
2019-01-18T07:44:30.835Z,584.00
2019-01-18T07:45:30.826Z,620.00
2019-01-18T07:46:30.816Z,644.00
2019-01-18T07:47:30.807Z,656.00
2019-01-18T07:48:31.282Z,680.00
2019-01-18T07:49:30.926Z,708.00
2019-01-18T07:50:30.775Z,736.00
2019-01-18T07:51:30.768Z,756.00
2019-01-18T07:52:30.759Z,784.00
2019-01-18T07:53:30.750Z,828.00
2019-01-18T07:54:30.734Z,896.00
2019-01-18T07:55:31.140Z,988.00
2019-01-18T07:56:30.867Z,1056.00
2019-01-18T07:57:31.528Z,1084.00
2019-01-18T07:58:31.221Z,1164.00
2019-01-18T07:59:30.875Z,1228.00
2019-01-18T08:00:30.695Z,1264.00
2019-01-18T08:01:31.238Z,1276.00
2019-01-18T08:02:30.740Z,1308.00
2019-01-18T08:03:30.698Z,1404.00
2019-01-18T08:04:30.628Z,1404.00
2019-01-18T08:05:30.636Z,1472.00
2019-01-18T08:06:30.612Z,1516.00
2019-01-18T08:07:30.681Z,1500.00
2019-01-18T08:08:31.953Z,1468.00
2019-01-18T08:09:30.607Z,1456.00
2019-01-18T08:10:30.565Z,1436.00
2019-01-18T08:11:30.553Z,1460.00
2019-01-18T08:12:30.545Z,1496.00
2019-01-18T08:13:30.744Z,1472.00
2019-01-18T08:14:30.527Z,1500.00
2019-01-18T08:15:30.987Z,1496.00
2019-01-18T08:16:30.504Z,1480.00
2019-01-18T08:17:30.496Z,1416.00
2019-01-18T08:18:30.497Z,1404.00
2019-01-18T08:19:30.509Z,1432.00
2019-01-18T08:20:30.505Z,1484.00
2019-01-18T08:21:30.488Z,1552.00
2019-01-18T08:22:30.794Z,1608.00
2019-01-18T08:23:30.432Z,1700.00
2019-01-18T08:24:30.418Z,1744.00
2019-01-18T08:25:30.488Z,1856.00
2019-01-18T08:26:30.513Z,1860.00
2019-01-18T08:27:30.426Z,1820.00
2019-01-18T08:28:30.376Z,1772.00
2019-01-18T08:29:31.290Z,1872.00
2019-01-18T08:30:30.377Z,1868.00
2019-01-18T08:31:30.380Z,1960.00
2019-01-18T08:32:30.336Z,2012.00
2019-01-18T08:33:30.366Z,2068.00
2019-01-18T08:34:30.316Z,2100.00
2019-01-18T08:35:30.302Z,2144.00
2019-01-18T08:36:31.442Z,2184.00
2019-01-18T08:37:30.316Z,2120.00
2019-01-18T08:38:30.275Z,2172.00
2019-01-18T08:39:30.262Z,2152.00
2019-01-18T08:40:30.255Z,2012.00
2019-01-18T08:41:30.242Z,1940.00
2019-01-18T08:42:30.231Z,2000.00
2019-01-18T08:43:30.277Z,2168.00
2019-01-18T08:44:30.212Z,2248.00
2019-01-18T08:45:30.197Z,2260.00
2019-01-18T08:46:30.191Z,2324.00
2019-01-18T08:47:30.181Z,2500.00
2019-01-18T08:48:30.171Z,2584.00
2019-01-18T08:49:30.205Z,2664.00
2019-01-18T08:50:31.009Z,2588.00
2019-01-18T08:51:30.175Z,2744.00
2019-01-18T08:52:30.137Z,2808.00
2019-01-18T08:53:30.988Z,2816.00
2019-01-18T08:54:30.105Z,2744.00
2019-01-18T08:55:30.455Z,2476.00
2019-01-18T08:56:30.082Z,2296.00
2019-01-18T08:57:32.965Z,2284.00
2019-01-18T08:58:30.068Z,2472.00
2019-01-18T08:59:30.062Z,2740.00
2019-01-18T09:00:30.050Z,2884.00
2019-01-18T09:01:35.635Z,2588.00
2019-01-18T09:02:31.021Z,2416.00
2019-01-18T09:03:32.964Z,2416.00
2019-01-18T09:04:30.967Z,2516.00
2019-01-18T09:05:30.012Z,2524.00
2019-01-18T09:06:29.977Z,2500.00
2019-01-18T09:07:30.473Z,2600.00
2019-01-18T09:08:30.463Z,2808.00
2019-01-18T09:09:29.949Z,3124.00
2019-01-18T09:10:29.938Z,2952.00
2019-01-18T09:11:29.925Z,2536.00
2019-01-18T09:12:29.916Z,2592.00
2019-01-18T09:13:29.941Z,2852.00
2019-01-18T09:14:30.403Z,2992.00
2019-01-18T09:15:29.897Z,2940.00
2019-01-18T09:16:29.876Z,2868.00
2019-01-18T09:17:29.865Z,2764.00
2019-01-18T09:18:29.855Z,2880.00
2019-01-18T09:19:29.905Z,3088.00
2019-01-18T09:20:29.872Z,3268.00
2019-01-18T09:21:30.212Z,3296.00
2019-01-18T09:22:29.810Z,3464.00
2019-01-18T09:23:29.801Z,3508.00
2019-01-18T09:24:29.790Z,3404.00
2019-01-18T09:25:29.916Z,3424.00
2019-01-18T09:26:29.768Z,3492.00
2019-01-18T09:27:29.762Z,3588.00
2019-01-18T09:28:30.269Z,3720.00
2019-01-18T09:29:29.736Z,3868.00
2019-01-18T09:30:29.737Z,4072.00
2019-01-18T09:31:29.742Z,4104.00
2019-01-18T09:32:29.706Z,4028.00
2019-01-18T09:33:29.698Z,3896.00
2019-01-18T09:34:29.757Z,3864.00
2019-01-18T09:35:29.674Z,3712.00
2019-01-18T09:36:29.667Z,3776.00
2019-01-18T09:37:29.727Z,3868.00
2019-01-18T09:38:29.647Z,3968.00
2019-01-18T09:39:29.636Z,4064.00
2019-01-18T09:40:29.622Z,4060.00
2019-01-18T09:41:31.044Z,3908.00
2019-01-18T09:42:29.621Z,3904.00
2019-01-18T09:43:29.636Z,3992.00
2019-01-18T09:44:29.584Z,4072.00
2019-01-18T09:45:29.728Z,4152.00
2019-01-18T09:46:29.596Z,4220.00
2019-01-18T09:47:29.612Z,4196.00
2019-01-18T09:48:30.926Z,4172.00
2019-01-18T09:49:29.575Z,4124.00
2019-01-18T09:50:29.520Z,4132.00
2019-01-18T09:51:29.512Z,4688.00
2019-01-18T09:52:29.503Z,4728.00
2019-01-18T09:53:29.490Z,4812.00
2019-01-18T09:54:29.480Z,4628.00
2019-01-18T09:55:29.544Z,4104.00
2019-01-18T09:56:29.471Z,4344.00
2019-01-18T09:57:29.449Z,4672.00
2019-01-18T09:58:29.439Z,3952.00
2019-01-18T09:59:30.142Z,4612.00
2019-01-18T10:00:29.422Z,4752.00
2019-01-18T10:01:29.440Z,4804.00
2019-01-18T10:02:29.398Z,4672.00
2019-01-18T10:03:29.399Z,4664.00
2019-01-18T10:04:29.380Z,4676.00
2019-01-18T10:05:29.380Z,4948.00
2019-01-18T10:06:29.408Z,4964.00
2019-01-18T10:07:33.441Z,5124.00
2019-01-18T10:08:29.878Z,5160.00
2019-01-18T10:09:29.592Z,4944.00
2019-01-18T10:10:30.457Z,4832.00
2019-01-18T10:11:29.407Z,4696.00
2019-01-18T10:12:29.446Z,4816.00
2019-01-18T10:13:30.158Z,4720.00
2019-01-18T10:14:29.866Z,4656.00
2019-01-18T10:15:29.433Z,4704.00
2019-01-18T10:16:29.265Z,4536.00
2019-01-18T10:17:29.242Z,4656.00
2019-01-18T10:18:29.233Z,4900.00
2019-01-18T10:19:29.252Z,4944.00
2019-01-18T10:20:29.242Z,4956.00
2019-01-18T10:21:29.520Z,4924.00
2019-01-18T10:22:29.255Z,4952.00
2019-01-18T10:23:29.184Z,4896.00
2019-01-18T10:24:29.174Z,4888.00
2019-01-18T10:25:29.210Z,5016.00
2019-01-18T10:26:29.161Z,5004.00
2019-01-18T10:27:29.139Z,5036.00
2019-01-18T10:28:29.615Z,5080.00
2019-01-18T10:29:29.223Z,5032.00
2019-01-18T10:30:31.517Z,4828.00
2019-01-18T10:31:32.066Z,4644.00
2019-01-18T10:32:29.872Z,4632.00
2019-01-18T10:33:29.073Z,4652.00
2019-01-18T10:34:29.220Z,5172.00
2019-01-18T10:35:30.314Z,5280.00
2019-01-18T10:36:29.224Z,5248.00
2019-01-18T10:37:43.949Z,5260.00
2019-01-18T10:38:29.952Z,5040.00
2019-01-18T10:39:29.007Z,4712.00
2019-01-18T10:40:35.947Z,4860.00
2019-01-18T10:41:30.300Z,5136.00
2019-01-18T10:42:29.405Z,5288.00
2019-01-18T10:43:31.955Z,5176.00
2019-01-18T10:44:29.106Z,5124.00
2019-01-18T10:45:28.968Z,5032.00
2019-01-18T10:46:28.960Z,5240.00
2019-01-18T10:47:31.415Z,5256.00
2019-01-18T10:48:29.924Z,5320.00
2019-01-18T10:49:29.450Z,5244.00
2019-01-18T10:50:29.473Z,5264.00
2019-01-18T10:51:28.942Z,5264.00
2019-01-18T10:52:29.410Z,5204.00
2019-01-18T10:53:29.414Z,5356.00
2019-01-18T10:54:28.906Z,5336.00
2019-01-18T10:55:28.838Z,5356.00
2019-01-18T10:56:28.834Z,5364.00
2019-01-18T10:57:28.827Z,5356.00
2019-01-18T10:58:28.822Z,5356.00
2019-01-18T10:59:30.211Z,5192.00
2019-01-18T11:00:28.818Z,5088.00
2019-01-18T11:01:28.777Z,5036.00
2019-01-18T11:02:28.761Z,5172.00
2019-01-18T11:03:28.751Z,4996.00
2019-01-18T11:04:28.744Z,5072.00
2019-01-18T11:05:28.731Z,5160.00
2019-01-18T11:06:29.165Z,5176.00
2019-01-18T11:07:28.710Z,5208.00
2019-01-18T11:08:28.700Z,5120.00
2019-01-18T11:09:28.968Z,5124.00
2019-01-18T11:10:28.682Z,5148.00
2019-01-18T11:11:28.671Z,5292.00
2019-01-18T11:12:28.776Z,5216.00
2019-01-18T11:13:29.125Z,5324.00
2019-01-18T11:14:28.709Z,5424.00
2019-01-18T11:15:28.629Z,5420.00
2019-01-18T11:16:28.681Z,5484.00
2019-01-18T11:17:28.601Z,5344.00
2019-01-18T11:18:28.664Z,5232.00
2019-01-18T11:19:28.633Z,5536.00
2019-01-18T11:20:28.902Z,5520.00
2019-01-18T11:21:28.567Z,5484.00
2019-01-18T11:22:28.553Z,5444.00
2019-01-18T11:23:28.593Z,5340.00
2019-01-18T11:24:28.992Z,5376.00
2019-01-18T11:25:31.975Z,5400.00
2019-01-18T11:26:28.562Z,5396.00
2019-01-18T11:27:28.925Z,5332.00
2019-01-18T11:28:28.493Z,5328.00
2019-01-18T11:29:28.722Z,5312.00
2019-01-18T11:30:28.757Z,5092.00
2019-01-18T11:31:29.255Z,5128.00
2019-01-18T11:32:28.507Z,5072.00
2019-01-18T11:33:28.468Z,5168.00
2019-01-18T11:34:28.723Z,5348.00
2019-01-18T11:35:28.408Z,5496.00
2019-01-18T11:36:28.442Z,5616.00
2019-01-18T11:37:28.398Z,5688.00
2019-01-18T11:38:28.380Z,5800.00
2019-01-18T11:39:28.370Z,5888.00
2019-01-18T11:40:28.366Z,5956.00
2019-01-18T11:41:28.831Z,5908.00
2019-01-18T11:42:29.122Z,5492.00
2019-01-18T11:43:28.322Z,5780.00
2019-01-18T11:44:28.359Z,5932.00
2019-01-18T11:45:28.309Z,5916.00
2019-01-18T11:46:28.293Z,6044.00
2019-01-18T11:47:28.403Z,6068.00
2019-01-18T11:48:28.690Z,6224.00
2019-01-18T11:49:28.263Z,6272.00
2019-01-18T11:50:28.279Z,6376.00
2019-01-18T11:51:28.258Z,6504.00
2019-01-18T11:52:28.228Z,18624.00
2019-01-18T11:53:28.255Z,7060.00
2019-01-18T11:54:28.254Z,7440.00
2019-01-18T11:55:28.563Z,8176.00
2019-01-18T11:56:28.198Z,9180.00
2019-01-18T11:57:28.243Z,36864.00
2019-01-18T11:58:28.216Z,80864.00
2019-01-18T11:59:28.231Z,89408.00
2019-01-18T12:00:28.364Z,91936.00
2019-01-18T12:01:28.140Z,89728.00
2019-01-18T12:02:28.121Z,90336.00
2019-01-18T12:03:28.111Z,89248.00
2019-01-18T12:04:28.110Z,86016.00
2019-01-18T12:05:28.104Z,86208.00
2019-01-18T12:06:28.218Z,84672.00
2019-01-18T12:07:28.100Z,87904.00
2019-01-18T12:08:28.648Z,85280.00
2019-01-18T12:09:29.189Z,86080.00
2019-01-18T12:10:29.453Z,80896.00
2019-01-18T12:11:28.186Z,90400.00
2019-01-18T12:12:28.064Z,89408.00
2019-01-18T12:13:28.070Z,84448.00
2019-01-18T12:14:28.084Z,88896.00
2019-01-18T12:15:28.392Z,92128.00
2019-01-18T12:16:28.591Z,97632.00
2019-01-18T12:17:28.117Z,95776.00
2019-01-18T12:18:28.872Z,94144.00
2019-01-18T12:19:28.130Z,94144.00
2019-01-18T12:20:27.975Z,93568.00
2019-01-18T12:21:28.438Z,91072.00
2019-01-18T12:22:28.444Z,88864.00
2019-01-18T12:23:28.038Z,81824.00
2019-01-18T12:24:28.368Z,78688.00
2019-01-18T12:25:29.922Z,77248.00
2019-01-18T12:26:28.431Z,80224.00
2019-01-18T12:27:27.866Z,82400.00
2019-01-18T12:28:28.013Z,87264.00
2019-01-18T12:29:28.414Z,87680.00
2019-01-18T12:30:28.656Z,85984.00
2019-01-18T12:31:27.890Z,86688.00
2019-01-18T12:32:28.979Z,90592.00
2019-01-18T12:33:28.364Z,88544.00
2019-01-18T12:34:27.783Z,90560.00
2019-01-18T12:35:27.807Z,94592.00
2019-01-18T12:36:29.309Z,91712.00
2019-01-18T12:37:27.861Z,91616.00
2019-01-18T12:38:27.795Z,92576.00
2019-01-18T12:39:27.836Z,88704.00